sensor_id;sensor_type;location;lat;lon;timestamp;pressure;altitude;pressure_sealevel;temperature;humidity
64402;BME280;50724;42.376;23.768;2023-12-20T00:01:04;93412.84;;;1.30;100.00
64402;BME280;50724;42.376;23.768;2023-12-20T00:04:06;93406.97;;;1.28;100.00
64402;BME280;50724;42.376;23.768;2023-12-20T00:07:06;93418.38;;;1.49;100.00
64402;BME280;50724;42.376;23.768;2023-12-20T00:10:07;93415.09;;;1.34;100.00
64402;BME280;50724;42.376;23.768;2023-12-20T00:13:07;93414.69;;;1.15;100.00
64402;BME280;50724;42.376;23.768;2023-12-20T00:16:09;93422.31;;;1.04;100.00
64402;BME280;50724;42.376;23.768;2023-12-20T00:19:09;93417.25;;;1.15;100.00
64402;BME280;50724;42.376;23.768;2023-12-20T00:22:10;93411.28;;;1.27;100.00
64402;BME280;50724;42.376;23.768;2023-12-20T00:25:11;93409.34;;;1.18;100.00
64402;BME280;50724;42.376;23.768;2023-12-20T00:28:11;93395.44;;;1.33;100.00
64402;BME280;50724;42.376;23.768;2023-12-20T00:31:12;93397.13;;;1.46;100.00
64402;BME280;50724;42.376;23.768;2023-12-20T00:34:12;93391.06;;;1.34;100.00
64402;BME280;50724;42.376;23.768;2023-12-20T00:37:12;93379.53;;;1.39;100.00
64402;BME280;50724;42.376;23.768;2023-12-20T00:40:13;93383.78;;;1.28;100.00
64402;BME280;50724;42.376;23.768;2023-12-20T00:43:13;93371.72;;;1.16;100.00
64402;BME280;50724;42.376;23.768;2023-12-20T00:46:14;93372.56;;;1.16;100.00
64402;BME280;50724;42.376;23.768;2023-12-20T00:49:14;93367.53;;;1.15;100.00
64402;BME280;50724;42.376;23.768;2023-12-20T00:52:15;93367.63;;;1.01;100.00
64402;BME280;50724;42.376;23.768;2023-12-20T00:55:17;93372.03;;;0.99;100.00
64402;BME280;50724;42.376;23.768;2023-12-20T00:58:17;93358.34;;;1.11;100.00
64402;BME280;50724;42.376;23.768;2023-12-20T01:01:18;93362.03;;;1.32;100.00
64402;BME280;50724;42.376;23.768;2023-12-20T01:04:18;93351.13;;;1.28;100.00
64402;BME280;50724;42.376;23.768;2023-12-20T01:07:19;93349.66;;;1.24;100.00
64402;BME280;50724;42.376;23.768;2023-12-20T01:10:20;93348.34;;;1.19;100.00
64402;BME280;50724;42.376;23.768;2023-12-20T01:13:20;93346.56;;;1.32;100.00
64402;BME280;50724;42.376;23.768;2023-12-20T01:16:21;93335.94;;;1.36;100.00
64402;BME280;50724;42.376;23.768;2023-12-20T01:19:21;93340.59;;;1.31;100.00
64402;BME280;50724;42.376;23.768;2023-12-20T01:22:22;93335.34;;;1.20;100.00
64402;BME280;50724;42.376;23.768;2023-12-20T01:25:23;93334.03;;;1.15;100.00
64402;BME280;50724;42.376;23.768;2023-12-20T01:28:23;93322.63;;;0.94;100.00
64402;BME280;50724;42.376;23.768;2023-12-20T01:31:23;93322.53;;;0.95;100.00
64402;BME280;50724;42.376;23.768;2023-12-20T01:34:24;93311.47;;;1.06;100.00
64402;BME280;50724;42.376;23.768;2023-12-20T01:37:24;93305.00;;;1.00;100.00
64402;BME280;50724;42.376;23.768;2023-12-20T01:40:26;93308.28;;;1.15;100.00
64402;BME280;50724;42.376;23.768;2023-12-20T01:43:27;93299.81;;;1.13;100.00
64402;BME280;50724;42.376;23.768;2023-12-20T01:46:27;93297.44;;;1.22;100.00
64402;BME280;50724;42.376;23.768;2023-12-20T01:49:28;93295.69;;;1.10;100.00
64402;BME280;50724;42.376;23.768;2023-12-20T01:52:28;93287.09;;;0.86;100.00
64402;BME280;50724;42.376;23.768;2023-12-20T01:55:31;93278.88;;;0.94;100.00
64402;BME280;50724;42.376;23.768;2023-12-20T01:58:33;93270.91;;;0.97;100.00
64402;BME280;50724;42.376;23.768;2023-12-20T02:01:35;93271.25;;;0.80;100.00
64402;BME280;50724;42.376;23.768;2023-12-20T02:04:35;93266.00;;;0.68;100.00
64402;BME280;50724;42.376;23.768;2023-12-20T02:07:36;93266.91;;;0.80;100.00
64402;BME280;50724;42.376;23.768;2023-12-20T02:10:36;93267.16;;;0.64;100.00
64402;BME280;50724;42.376;23.768;2023-12-20T02:13:37;93267.03;;;0.79;100.00
64402;BME280;50724;42.376;23.768;2023-12-20T02:16:37;93262.91;;;0.76;100.00
64402;BME280;50724;42.376;23.768;2023-12-20T02:19:38;93244.19;;;0.61;100.00
64402;BME280;50724;42.376;23.768;2023-12-20T02:22:38;93242.97;;;0.42;100.00
64402;BME280;50724;42.376;23.768;2023-12-20T02:25:39;93237.53;;;0.46;100.00
64402;BME280;50724;42.376;23.768;2023-12-20T02:28:39;93237.50;;;0.59;100.00
64402;BME280;50724;42.376;23.768;2023-12-20T02:31:40;93232.88;;;0.64;100.00
64402;BME280;50724;42.376;23.768;2023-12-20T02:34:40;93229.56;;;0.62;100.00
64402;BME280;50724;42.376;23.768;2023-12-20T02:37:41;93228.84;;;0.47;100.00
64402;BME280;50724;42.376;23.768;2023-12-20T02:40:41;93221.16;;;0.60;100.00
64402;BME280;50724;42.376;23.768;2023-12-20T02:43:41;93223.72;;;0.60;100.00
64402;BME280;50724;42.376;23.768;2023-12-20T02:46:42;93232.66;;;0.67;100.00
64402;BME280;50724;42.376;23.768;2023-12-20T02:49:42;93224.22;;;0.65;100.00
64402;BME280;50724;42.376;23.768;2023-12-20T02:52:44;93232.78;;;0.65;100.00
64402;BME280;50724;42.376;23.768;2023-12-20T02:55:45;93232.59;;;0.56;100.00
64402;BME280;50724;42.376;23.768;2023-12-20T02:58:45;93231.66;;;0.44;100.00
64402;BME280;50724;42.376;23.768;2023-12-20T03:01:46;93223.84;;;0.46;100.00
64402;BME280;50724;42.376;23.768;2023-12-20T03:04:47;93215.47;;;0.42;100.00
64402;BME280;50724;42.376;23.768;2023-12-20T03:07:47;93217.56;;;0.37;100.00
64402;BME280;50724;42.376;23.768;2023-12-20T03:10:47;93212.13;;;0.42;100.00
64402;BME280;50724;42.376;23.768;2023-12-20T03:13:48;93206.34;;;0.51;100.00
64402;BME280;50724;42.376;23.768;2023-12-20T03:16:51;93212.91;;;0.55;100.00
64402;BME280;50724;42.376;23.768;2023-12-20T03:19:52;93205.38;;;0.64;100.00
64402;BME280;50724;42.376;23.768;2023-12-20T03:22:52;93204.75;;;0.74;100.00
64402;BME280;50724;42.376;23.768;2023-12-20T03:25:53;93213.41;;;0.60;100.00
64402;BME280;50724;42.376;23.768;2023-12-20T03:28:53;93209.44;;;0.18;100.00
64402;BME280;50724;42.376;23.768;2023-12-20T03:31:53;93206.63;;;0.21;100.00
64402;BME280;50724;42.376;23.768;2023-12-20T03:34:54;93220.66;;;0.30;100.00
64402;BME280;50724;42.376;23.768;2023-12-20T03:37:54;93210.25;;;0.31;100.00
64402;BME280;50724;42.376;23.768;2023-12-20T03:41:04;93212.50;;;0.61;100.00
64402;BME280;50724;42.376;23.768;2023-12-20T03:44:04;93210.47;;;0.53;100.00
64402;BME280;50724;42.376;23.768;2023-12-20T03:47:06;93209.75;;;0.39;100.00
64402;BME280;50724;42.376;23.768;2023-12-20T03:50:07;93201.00;;;0.41;100.00
64402;BME280;50724;42.376;23.768;2023-12-20T03:53:07;93199.13;;;0.43;100.00
64402;BME280;50724;42.376;23.768;2023-12-20T03:56:08;93185.38;;;0.32;100.00
64402;BME280;50724;42.376;23.768;2023-12-20T03:59:08;93181.53;;;0.50;100.00
64402;BME280;50724;42.376;23.768;2023-12-20T04:02:09;93174.31;;;0.55;100.00
64402;BME280;50724;42.376;23.768;2023-12-20T04:05:10;93173.28;;;0.57;100.00
64402;BME280;50724;42.376;23.768;2023-12-20T04:08:10;93173.88;;;0.74;100.00
64402;BME280;50724;42.376;23.768;2023-12-20T04:11:11;93168.78;;;0.85;100.00
64402;BME280;50724;42.376;23.768;2023-12-20T04:14:11;93170.13;;;0.78;100.00
64402;BME280;50724;42.376;23.768;2023-12-20T04:17:13;93167.19;;;0.71;100.00
64402;BME280;50724;42.376;23.768;2023-12-20T04:20:16;93171.63;;;0.69;100.00
64402;BME280;50724;42.376;23.768;2023-12-20T04:23:16;93170.50;;;0.60;100.00
64402;BME280;50724;42.376;23.768;2023-12-20T04:26:16;93171.63;;;0.56;100.00
64402;BME280;50724;42.376;23.768;2023-12-20T04:29:25;93176.16;;;0.65;100.00
64402;BME280;50724;42.376;23.768;2023-12-20T04:32:26;93168.72;;;0.74;100.00
64402;BME280;50724;42.376;23.768;2023-12-20T04:35:26;93162.88;;;0.59;100.00
64402;BME280;50724;42.376;23.768;2023-12-20T04:38:27;93153.31;;;0.61;100.00
64402;BME280;50724;42.376;23.768;2023-12-20T04:41:27;93159.19;;;0.50;100.00
64402;BME280;50724;42.376;23.768;2023-12-20T04:44:27;93153.78;;;0.30;100.00
64402;BME280;50724;42.376;23.768;2023-12-20T04:47:28;93149.03;;;0.36;100.00
64402;BME280;50724;42.376;23.768;2023-12-20T04:50:29;93150.34;;;0.54;100.00
64402;BME280;50724;42.376;23.768;2023-12-20T04:53:29;93144.38;;;0.54;100.00
64402;BME280;50724;42.376;23.768;2023-12-20T04:56:30;93137.41;;;0.43;100.00
64402;BME280;50724;42.376;23.768;2023-12-20T04:59:30;93133.91;;;0.44;100.00
64402;BME280;50724;42.376;23.768;2023-12-20T05:02:30;93129.34;;;0.48;100.00
64402;BME280;50724;42.376;23.768;2023-12-20T05:05:31;93133.09;;;0.31;100.00
64402;BME280;50724;42.376;23.768;2023-12-20T05:08:32;93140.50;;;0.36;100.00
64402;BME280;50724;42.376;23.768;2023-12-20T05:11:32;93130.97;;;0.25;100.00
64402;BME280;50724;42.376;23.768;2023-12-20T05:14:33;93131.16;;;0.35;100.00
64402;BME280;50724;42.376;23.768;2023-12-20T05:17:33;93130.50;;;0.44;100.00
64402;BME280;50724;42.376;23.768;2023-12-20T05:20:34;93129.94;;;0.28;100.00
64402;BME280;50724;42.376;23.768;2023-12-20T05:23:34;93126.22;;;0.19;100.00
64402;BME280;50724;42.376;23.768;2023-12-20T05:26:35;93119.53;;;0.17;100.00
64402;BME280;50724;42.376;23.768;2023-12-20T05:29:35;93122.84;;;0.19;100.00
64402;BME280;50724;42.376;23.768;2023-12-20T05:32:35;93119.97;;;0.23;100.00
64402;BME280;50724;42.376;23.768;2023-12-20T05:35:36;93116.88;;;0.18;100.00
64402;BME280;50724;42.376;23.768;2023-12-20T05:38:37;93114.06;;;0.21;100.00
64402;BME280;50724;42.376;23.768;2023-12-20T05:41:37;93106.06;;;0.26;100.00
64402;BME280;50724;42.376;23.768;2023-12-20T05:44:37;93098.34;;;0.26;100.00
64402;BME280;50724;42.376;23.768;2023-12-20T05:47:38;93098.66;;;0.21;100.00
64402;BME280;50724;42.376;23.768;2023-12-20T05:50:38;93096.06;;;0.21;100.00
64402;BME280;50724;42.376;23.768;2023-12-20T05:53:47;93098.44;;;0.37;100.00
64402;BME280;50724;42.376;23.768;2023-12-20T05:56:50;93094.09;;;0.37;100.00
64402;BME280;50724;42.376;23.768;2023-12-20T05:59:50;93088.22;;;0.35;100.00
64402;BME280;50724;42.376;23.768;2023-12-20T06:02:52;93081.56;;;0.33;100.00
64402;BME280;50724;42.376;23.768;2023-12-20T06:05:52;93082.03;;;0.50;100.00
64402;BME280;50724;42.376;23.768;2023-12-20T06:08:53;93085.41;;;0.51;100.00
64402;BME280;50724;42.376;23.768;2023-12-20T06:11:53;93077.06;;;0.60;100.00
64402;BME280;50724;42.376;23.768;2023-12-20T06:14:54;93081.25;;;0.85;100.00
64402;BME280;50724;42.376;23.768;2023-12-20T06:17:55;93088.13;;;0.97;100.00
64402;BME280;50724;42.376;23.768;2023-12-20T06:20:55;93082.22;;;1.07;100.00
64402;BME280;50724;42.376;23.768;2023-12-20T06:23:56;93074.28;;;1.21;100.00
64402;BME280;50724;42.376;23.768;2023-12-20T06:26:56;93065.47;;;1.48;100.00
64402;BME280;50724;42.376;23.768;2023-12-20T06:29:56;93074.53;;;1.75;100.00
64402;BME280;50724;42.376;23.768;2023-12-20T06:32:57;93059.44;;;1.93;100.00
64402;BME280;50724;42.376;23.768;2023-12-20T06:35:57;93055.00;;;2.06;100.00
64402;BME280;50724;42.376;23.768;2023-12-20T06:38:58;93059.53;;;2.36;100.00
64402;BME280;50724;42.376;23.768;2023-12-20T06:41:58;93061.19;;;2.48;100.00
64402;BME280;50724;42.376;23.768;2023-12-20T06:44:59;93061.63;;;2.64;100.00
64402;BME280;50724;42.376;23.768;2023-12-20T06:47:59;93065.78;;;2.87;100.00
64402;BME280;50724;42.376;23.768;2023-12-20T06:51:00;93070.16;;;3.18;97.86
64402;BME280;50724;42.376;23.768;2023-12-20T06:54:03;93067.19;;;3.23;100.00
64402;BME280;50724;42.376;23.768;2023-12-20T06:57:04;93060.06;;;3.15;100.00
64402;BME280;50724;42.376;23.768;2023-12-20T07:00:05;93064.31;;;2.73;99.17
64402;BME280;50724;42.376;23.768;2023-12-20T07:03:06;93075.56;;;2.72;100.00
64402;BME280;50724;42.376;23.768;2023-12-20T07:06:06;93069.69;;;2.70;100.00
64402;BME280;50724;42.376;23.768;2023-12-20T07:09:07;93069.25;;;2.54;100.00
64402;BME280;50724;42.376;23.768;2023-12-20T07:12:07;93059.69;;;2.34;100.00
64402;BME280;50724;42.376;23.768;2023-12-20T07:15:08;93059.53;;;2.14;100.00
64402;BME280;50724;42.376;23.768;2023-12-20T07:18:08;93052.63;;;2.47;100.00
64402;BME280;50724;42.376;23.768;2023-12-20T07:21:09;93050.31;;;2.76;100.00
64402;BME280;50724;42.376;23.768;2023-12-20T07:24:09;93043.16;;;3.11;100.00
64402;BME280;50724;42.376;23.768;2023-12-20T07:27:10;93044.72;;;3.55;100.00
64402;BME280;50724;42.376;23.768;2023-12-20T07:30:11;93033.91;;;3.71;98.83
64402;BME280;50724;42.376;23.768;2023-12-20T07:33:11;93039.09;;;4.01;94.86
64402;BME280;50724;42.376;23.768;2023-12-20T07:36:12;93029.31;;;4.35;93.03
64402;BME280;50724;42.376;23.768;2023-12-20T07:39:14;93035.03;;;4.78;87.94
64402;BME280;50724;42.376;23.768;2023-12-20T07:42:14;93025.09;;;5.50;84.97
64402;BME280;50724;42.376;23.768;2023-12-20T07:45:15;93026.00;;;5.68;83.50
64402;BME280;50724;42.376;23.768;2023-12-20T07:48:16;93020.41;;;5.63;85.60
64402;BME280;50724;42.376;23.768;2023-12-20T07:51:16;93028.22;;;5.53;87.41
64402;BME280;50724;42.376;23.768;2023-12-20T07:54:17;93022.06;;;5.64;87.23
64402;BME280;50724;42.376;23.768;2023-12-20T07:57:18;93017.03;;;5.63;84.77
64402;BME280;50724;42.376;23.768;2023-12-20T08:00:18;93023.31;;;5.50;84.18
64402;BME280;50724;42.376;23.768;2023-12-20T08:03:19;93013.63;;;5.33;87.75
64402;BME280;50724;42.376;23.768;2023-12-20T08:06:19;93011.31;;;5.21;87.91
64402;BME280;50724;42.376;23.768;2023-12-20T08:09:20;93010.47;;;5.30;89.72
64402;BME280;50724;42.376;23.768;2023-12-20T08:12:20;93012.38;;;5.66;87.68
64402;BME280;50724;42.376;23.768;2023-12-20T08:15:21;92998.41;;;5.86;81.47
64402;BME280;50724;42.376;23.768;2023-12-20T08:18:21;92997.75;;;5.84;79.50
64402;BME280;50724;42.376;23.768;2023-12-20T08:21:23;92995.16;;;5.65;80.78
64402;BME280;50724;42.376;23.768;2023-12-20T08:24:23;92986.19;;;5.50;78.02
64402;BME280;50724;42.376;23.768;2023-12-20T08:27:24;92983.88;;;5.47;78.76
64402;BME280;50724;42.376;23.768;2023-12-20T08:30:26;92994.91;;;5.49;79.35
64402;BME280;50724;42.376;23.768;2023-12-20T08:33:26;92999.66;;;5.73;78.43
64402;BME280;50724;42.376;23.768;2023-12-20T08:36:26;93001.16;;;5.85;74.64
64402;BME280;50724;42.376;23.768;2023-12-20T08:39:27;92992.84;;;5.72;72.29
64402;BME280;50724;42.376;23.768;2023-12-20T08:42:27;92981.06;;;5.77;68.05
64402;BME280;50724;42.376;23.768;2023-12-20T08:45:31;92979.94;;;5.33;69.31
64402;BME280;50724;42.376;23.768;2023-12-20T08:48:31;92972.94;;;5.63;71.91
64402;BME280;50724;42.376;23.768;2023-12-20T08:51:32;92971.25;;;5.90;72.92
64402;BME280;50724;42.376;23.768;2023-12-20T08:54:33;92962.81;;;6.15;72.05
64402;BME280;50724;42.376;23.768;2023-12-20T08:57:34;92959.69;;;6.39;71.62
64402;BME280;50724;42.376;23.768;2023-12-20T09:00:34;92955.06;;;6.33;72.80
64402;BME280;50724;42.376;23.768;2023-12-20T09:03:44;92951.47;;;6.61;71.96
64402;BME280;50724;42.376;23.768;2023-12-20T09:06:44;92947.88;;;6.89;69.93
64402;BME280;50724;42.376;23.768;2023-12-20T09:09:45;92934.56;;;7.28;66.00
64402;BME280;50724;42.376;23.768;2023-12-20T09:12:45;92932.06;;;7.44;66.24
64402;BME280;50724;42.376;23.768;2023-12-20T09:15:47;92923.59;;;7.42;64.13
64402;BME280;50724;42.376;23.768;2023-12-20T09:18:47;92917.91;;;7.64;60.67
64402;BME280;50724;42.376;23.768;2023-12-20T09:21:48;92912.94;;;7.53;59.42
64402;BME280;50724;42.376;23.768;2023-12-20T09:24:48;92904.56;;;7.93;59.37
64402;BME280;50724;42.376;23.768;2023-12-20T09:27:49;92893.78;;;8.13;57.37
64402;BME280;50724;42.376;23.768;2023-12-20T09:30:49;92896.84;;;8.51;57.92
64402;BME280;50724;42.376;23.768;2023-12-20T09:33:50;92896.59;;;8.94;58.39
64402;BME280;50724;42.376;23.768;2023-12-20T09:36:50;92891.56;;;9.17;59.45
64402;BME280;50724;42.376;23.768;2023-12-20T09:39:51;92881.28;;;9.15;60.30
64402;BME280;50724;42.376;23.768;2023-12-20T09:43:07;92882.59;;;9.27;62.65
64402;BME280;50724;42.376;23.768;2023-12-20T09:46:11;92878.84;;;9.46;63.65
64402;BME280;50724;42.376;23.768;2023-12-20T09:49:17;92871.00;;;9.54;63.67
64402;BME280;50724;42.376;23.768;2023-12-20T09:52:19;92863.66;;;9.41;64.23
64402;BME280;50724;42.376;23.768;2023-12-20T09:55:21;92852.25;;;9.42;58.63
64402;BME280;50724;42.376;23.768;2023-12-20T09:58:22;92843.47;;;9.27;58.40
64402;BME280;50724;42.376;23.768;2023-12-20T10:01:23;92836.31;;;9.21;57.63
64402;BME280;50724;42.376;23.768;2023-12-20T10:04:24;92829.63;;;9.19;57.94
64402;BME280;50724;42.376;23.768;2023-12-20T10:07:25;92820.63;;;9.37;58.17
64402;BME280;50724;42.376;23.768;2023-12-20T10:10:34;92825.69;;;9.23;57.93
64402;BME280;50724;42.376;23.768;2023-12-20T10:13:42;92827.00;;;9.11;58.50
64402;BME280;50724;42.376;23.768;2023-12-20T10:16:42;92812.97;;;8.71;59.52
64402;BME280;50724;42.376;23.768;2023-12-20T10:19:43;92807.09;;;8.45;58.32
64402;BME280;50724;42.376;23.768;2023-12-20T10:22:43;92807.91;;;8.62;61.49
64402;BME280;50724;42.376;23.768;2023-12-20T10:25:55;92797.63;;;8.36;64.01
64402;BME280;50724;42.376;23.768;2023-12-20T10:28:59;92792.25;;;8.54;64.56
64402;BME280;50724;42.376;23.768;2023-12-20T10:32:27;92786.06;;;8.63;59.78
64402;BME280;50724;42.376;23.768;2023-12-20T10:35:27;92784.94;;;8.57;60.61
64402;BME280;50724;42.376;23.768;2023-12-20T10:38:28;92778.59;;;8.52;62.07
64402;BME280;50724;42.376;23.768;2023-12-20T10:41:32;92773.38;;;8.44;59.94
64402;BME280;50724;42.376;23.768;2023-12-20T10:44:33;92772.16;;;8.22;62.20
64402;BME280;50724;42.376;23.768;2023-12-20T10:47:35;92765.47;;;8.11;63.56
64402;BME280;50724;42.376;23.768;2023-12-20T10:50:36;92759.84;;;8.32;64.16
64402;BME280;50724;42.376;23.768;2023-12-20T10:53:57;92763.13;;;8.50;63.04
64402;BME280;50724;42.376;23.768;2023-12-20T10:56:58;92759.19;;;8.70;59.51
64402;BME280;50724;42.376;23.768;2023-12-20T11:00:01;92750.41;;;8.71;56.90
64402;BME280;50724;42.376;23.768;2023-12-20T11:03:05;92751.38;;;8.54;57.75
64402;BME280;50724;42.376;23.768;2023-12-20T11:09:36;92731.66;;;8.84;55.90
64402;BME280;50724;42.376;23.768;2023-12-20T11:13:20;92725.66;;;8.67;56.67
64402;BME280;50724;42.376;23.768;2023-12-20T11:16:14;92720.28;;;8.69;57.01
64402;BME280;50724;42.376;23.768;2023-12-20T11:19:16;92714.38;;;8.75;57.45
64402;BME280;50724;42.376;23.768;2023-12-20T11:22:17;92703.78;;;8.92;56.24
64402;BME280;50724;42.376;23.768;2023-12-20T11:25:17;92707.88;;;8.79;55.93
64402;BME280;50724;42.376;23.768;2023-12-20T11:28:23;92712.91;;;8.96;56.77
64402;BME280;50724;42.376;23.768;2023-12-20T11:31:27;92713.72;;;8.97;57.18
64402;BME280;50724;42.376;23.768;2023-12-20T11:34:28;92701.03;;;8.86;55.44
64402;BME280;50724;42.376;23.768;2023-12-20T11:37:35;92702.75;;;9.10;54.38
64402;BME280;50724;42.376;23.768;2023-12-20T11:40:36;92698.03;;;9.13;53.93
64402;BME280;50724;42.376;23.768;2023-12-20T11:43:37;92687.59;;;9.05;55.80
64402;BME280;50724;42.376;23.768;2023-12-20T11:46:38;92681.63;;;8.88;55.13
64402;BME280;50724;42.376;23.768;2023-12-20T11:49:39;92675.63;;;8.56;56.64
64402;BME280;50724;42.376;23.768;2023-12-20T11:52:49;92680.06;;;8.39;58.28
64402;BME280;50724;42.376;23.768;2023-12-20T11:55:50;92669.13;;;8.36;58.42
64402;BME280;50724;42.376;23.768;2023-12-20T11:58:51;92667.84;;;8.48;57.67
64402;BME280;50724;42.376;23.768;2023-12-20T12:01:51;92663.91;;;8.60;56.80
64402;BME280;50724;42.376;23.768;2023-12-20T12:04:52;92665.41;;;8.46;57.11
64402;BME280;50724;42.376;23.768;2023-12-20T12:07:53;92668.66;;;8.40;57.18
64402;BME280;50724;42.376;23.768;2023-12-20T12:10:53;92655.28;;;8.43;57.78
64402;BME280;50724;42.376;23.768;2023-12-20T12:13:54;92656.13;;;8.44;56.55
64402;BME280;50724;42.376;23.768;2023-12-20T12:16:54;92649.75;;;8.62;56.30
64402;BME280;50724;42.376;23.768;2023-12-20T12:20:04;92648.09;;;8.61;56.43
64402;BME280;50724;42.376;23.768;2023-12-20T12:23:05;92648.44;;;8.50;56.64
64402;BME280;50724;42.376;23.768;2023-12-20T12:26:06;92638.84;;;8.26;58.63
64402;BME280;50724;42.376;23.768;2023-12-20T12:29:07;92633.97;;;8.32;59.53
64402;BME280;50724;42.376;23.768;2023-12-20T12:32:09;92627.94;;;8.31;59.33
64402;BME280;50724;42.376;23.768;2023-12-20T12:35:10;92628.41;;;8.43;59.28
64402;BME280;50724;42.376;23.768;2023-12-20T12:38:11;92633.59;;;8.59;59.08
64402;BME280;50724;42.376;23.768;2023-12-20T12:41:13;92621.06;;;8.54;59.46
64402;BME280;50724;42.376;23.768;2023-12-20T12:44:13;92619.31;;;8.39;60.82
64402;BME280;50724;42.376;23.768;2023-12-20T12:47:14;92621.88;;;8.55;61.63
64402;BME280;50724;42.376;23.768;2023-12-20T12:50:14;92622.88;;;8.38;60.52
64402;BME280;50724;42.376;23.768;2023-12-20T12:53:15;92626.66;;;8.27;60.17
64402;BME280;50724;42.376;23.768;2023-12-20T12:56:15;92625.81;;;8.10;59.04
64402;BME280;50724;42.376;23.768;2023-12-20T12:59:16;92621.25;;;8.12;56.93
64402;BME280;50724;42.376;23.768;2023-12-20T13:02:16;92615.41;;;7.94;57.52
64402;BME280;50724;42.376;23.768;2023-12-20T13:05:17;92616.19;;;7.95;58.17
64402;BME280;50724;42.376;23.768;2023-12-20T13:08:18;92620.09;;;8.07;58.00
64402;BME280;50724;42.376;23.768;2023-12-20T13:11:18;92621.72;;;8.00;58.88
64402;BME280;50724;42.376;23.768;2023-12-20T13:14:19;92622.56;;;8.08;58.88
64402;BME280;50724;42.376;23.768;2023-12-20T13:17:19;92614.41;;;8.03;59.07
64402;BME280;50724;42.376;23.768;2023-12-20T13:20:20;92612.94;;;8.17;58.49
64402;BME280;50724;42.376;23.768;2023-12-20T13:23:20;92614.44;;;8.27;58.08
64402;BME280;50724;42.376;23.768;2023-12-20T13:26:21;92610.22;;;8.35;58.78
64402;BME280;50724;42.376;23.768;2023-12-20T13:29:21;92614.44;;;8.44;57.52
64402;BME280;50724;42.376;23.768;2023-12-20T13:32:22;92614.09;;;8.30;59.65
64402;BME280;50724;42.376;23.768;2023-12-20T13:35:22;92602.06;;;8.13;58.85
64402;BME280;50724;42.376;23.768;2023-12-20T13:38:22;92603.81;;;8.05;58.04
64402;BME280;50724;42.376;23.768;2023-12-20T13:41:23;92596.66;;;7.75;58.55
64402;BME280;50724;42.376;23.768;2023-12-20T13:44:23;92592.28;;;7.91;57.42
64402;BME280;50724;42.376;23.768;2023-12-20T13:47:24;92591.63;;;7.81;59.38
64402;BME280;50724;42.376;23.768;2023-12-20T13:50:25;92595.38;;;7.71;59.61
64402;BME280;50724;42.376;23.768;2023-12-20T13:53:26;92587.97;;;7.34;61.25
64402;BME280;50724;42.376;23.768;2023-12-20T13:56:26;92590.88;;;7.23;61.71
64402;BME280;50724;42.376;23.768;2023-12-20T13:59:27;92581.34;;;7.31;63.00
64402;BME280;50724;42.376;23.768;2023-12-20T14:02:27;92594.66;;;7.28;63.94
64402;BME280;50724;42.376;23.768;2023-12-20T14:05:28;92588.28;;;7.15;62.32
64402;BME280;50724;42.376;23.768;2023-12-20T14:08:28;92589.34;;;6.96;64.22
64402;BME280;50724;42.376;23.768;2023-12-20T14:11:29;92596.88;;;6.73;64.97
64402;BME280;50724;42.376;23.768;2023-12-20T14:14:29;92590.31;;;6.61;64.59
64402;BME280;50724;42.376;23.768;2023-12-20T14:17:30;92584.94;;;6.55;64.19
64402;BME280;50724;42.376;23.768;2023-12-20T14:20:32;92592.50;;;6.40;65.05
64402;BME280;50724;42.376;23.768;2023-12-20T14:23:34;92590.47;;;6.26;64.85
64402;BME280;50724;42.376;23.768;2023-12-20T14:26:35;92584.94;;;6.21;66.87
64402;BME280;50724;42.376;23.768;2023-12-20T14:29:37;92576.97;;;5.97;66.42
64402;BME280;50724;42.376;23.768;2023-12-20T14:32:38;92582.28;;;5.70;69.66
64402;BME280;50724;42.376;23.768;2023-12-20T14:35:38;92578.84;;;5.51;71.60
64402;BME280;50724;42.376;23.768;2023-12-20T14:38:38;92578.56;;;5.02;74.92
64402;BME280;50724;42.376;23.768;2023-12-20T14:41:39;92577.34;;;4.96;79.44
64402;BME280;50724;42.376;23.768;2023-12-20T14:44:43;92578.78;;;5.08;79.24
64402;BME280;50724;42.376;23.768;2023-12-20T14:47:44;92591.19;;;4.87;74.84
64402;BME280;50724;42.376;23.768;2023-12-20T14:50:44;92583.91;;;4.91;76.25
64402;BME280;50724;42.376;23.768;2023-12-20T14:53:47;92581.66;;;4.88;76.92
64402;BME280;50724;42.376;23.768;2023-12-20T14:56:47;92585.03;;;4.88;76.48
64402;BME280;50724;42.376;23.768;2023-12-20T14:59:48;92581.16;;;4.74;80.78
64402;BME280;50724;42.376;23.768;2023-12-20T15:02:48;92582.44;;;4.88;79.91
64402;BME280;50724;42.376;23.768;2023-12-20T15:05:49;92583.53;;;4.85;78.46
64402;BME280;50724;42.376;23.768;2023-12-20T15:08:50;92587.72;;;4.69;79.66
64402;BME280;50724;42.376;23.768;2023-12-20T15:11:52;92576.03;;;4.65;78.71
64402;BME280;50724;42.376;23.768;2023-12-20T15:14:52;92577.31;;;4.51;84.18
64402;BME280;50724;42.376;23.768;2023-12-20T15:17:53;92583.50;;;4.41;86.64
64402;BME280;50724;42.376;23.768;2023-12-20T15:20:53;92586.75;;;4.06;91.40
64402;BME280;50724;42.376;23.768;2023-12-20T15:23:54;92588.66;;;4.04;92.41
64402;BME280;50724;42.376;23.768;2023-12-20T15:26:55;92588.38;;;4.07;95.66
64402;BME280;50724;42.376;23.768;2023-12-20T15:29:56;92588.13;;;4.00;94.38
64402;BME280;50724;42.376;23.768;2023-12-20T15:32:56;92582.28;;;3.98;96.92
64402;BME280;50724;42.376;23.768;2023-12-20T15:35:57;92585.56;;;3.91;98.64
64402;BME280;50724;42.376;23.768;2023-12-20T15:38:57;92583.81;;;3.82;100.00
64402;BME280;50724;42.376;23.768;2023-12-20T15:41:58;92581.47;;;3.98;100.00
64402;BME280;50724;42.376;23.768;2023-12-20T15:44:58;92591.38;;;4.02;100.00
64402;BME280;50724;42.376;23.768;2023-12-20T15:47:59;92587.34;;;3.71;100.00
64402;BME280;50724;42.376;23.768;2023-12-20T15:51:04;92591.03;;;3.78;100.00
64402;BME280;50724;42.376;23.768;2023-12-20T15:54:05;92591.44;;;3.74;100.00
64402;BME280;50724;42.376;23.768;2023-12-20T15:57:08;92581.78;;;3.66;100.00